createdAt,value
2019-05-19T00:01:33.805Z,18.73
2019-05-19T00:04:04.460Z,18.53
2019-05-19T00:06:35.148Z,13.20
2019-05-19T00:09:06.578Z,14.87
2019-05-19T00:11:37.154Z,14.17
2019-05-19T00:14:07.842Z,13.43
2019-05-19T00:16:38.439Z,15.40
2019-05-19T00:19:09.069Z,16.20
2019-05-19T00:21:39.642Z,13.60
2019-05-19T00:24:10.240Z,17.13
2019-05-19T00:26:40.821Z,16.73
2019-05-19T00:29:11.393Z,20.30
2019-05-19T00:31:41.971Z,17.03
2019-05-19T00:34:12.553Z,15.00
2019-05-19T00:36:43.150Z,15.40
2019-05-19T00:39:13.739Z,17.80
2019-05-19T00:41:44.370Z,22.40
2019-05-19T00:44:14.942Z,19.57
2019-05-19T00:46:45.581Z,20.07
2019-05-19T00:49:17.109Z,21.63
2019-05-19T00:51:47.775Z,16.43
2019-05-19T00:54:18.373Z,17.67
2019-05-19T00:56:49.949Z,17.30
2019-05-19T00:59:21.257Z,17.13
2019-05-19T01:01:52.041Z,15.77
2019-05-19T01:04:22.724Z,15.37
2019-05-19T01:06:53.321Z,18.13
2019-05-19T01:09:23.903Z,16.80
2019-05-19T01:11:54.471Z,14.27
2019-05-19T01:14:25.061Z,16.87
2019-05-19T01:16:56.746Z,17.83
2019-05-19T01:19:27.659Z,15.60
2019-05-19T01:22:00.777Z,20.13
2019-05-19T01:24:31.510Z,16.47
2019-05-19T01:27:02.093Z,16.17
2019-05-19T01:29:32.742Z,21.70
2019-05-19T01:32:04.858Z,13.73
2019-05-19T01:34:35.540Z,16.53
2019-05-19T01:37:06.121Z,14.93
2019-05-19T01:39:36.688Z,15.60
2019-05-19T01:42:07.286Z,15.10
2019-05-19T01:44:37.874Z,17.83
2019-05-19T01:47:08.454Z,15.90
2019-05-19T01:49:39.077Z,19.27
2019-05-19T01:52:10.737Z,18.60
2019-05-19T01:54:41.337Z,15.43
2019-05-19T01:57:11.994Z,16.53
2019-05-19T01:59:42.598Z,15.60
2019-05-19T02:02:13.284Z,16.63
2019-05-19T02:04:43.920Z,15.90
2019-05-19T02:07:14.467Z,20.87
2019-05-19T02:09:45.048Z,18.43
2019-05-19T02:12:15.631Z,23.73
2019-05-19T02:14:46.217Z,18.80
2019-05-19T02:17:16.791Z,18.83
2019-05-19T02:19:47.369Z,17.40
2019-05-19T02:22:17.949Z,17.50
2019-05-19T02:24:48.536Z,19.33
2019-05-19T02:27:19.143Z,20.63
2019-05-19T02:29:49.720Z,20.03
2019-05-19T02:32:20.300Z,22.03
2019-05-19T02:34:51.448Z,18.23
2019-05-19T02:37:22.033Z,17.97
2019-05-19T02:39:52.601Z,17.33
2019-05-19T02:42:25.922Z,19.87
2019-05-19T02:44:58.607Z,20.10
2019-05-19T02:47:31.444Z,20.77
2019-05-19T02:50:03.489Z,21.07
2019-05-19T02:52:34.802Z,22.87
2019-05-19T02:55:06.328Z,20.77
2019-05-19T02:57:38.233Z,24.20
2019-05-19T03:00:10.654Z,21.60
2019-05-19T03:02:41.237Z,20.60
2019-05-19T03:05:11.969Z,22.93
2019-05-19T03:07:42.564Z,23.80
2019-05-19T03:10:13.600Z,20.30
2019-05-19T03:12:44.171Z,21.77
2019-05-19T03:15:14.754Z,22.30
2019-05-19T03:17:45.438Z,24.33
2019-05-19T03:20:16.005Z,25.57
2019-05-19T03:22:46.600Z,25.00
2019-05-19T03:25:17.311Z,22.97
2019-05-19T03:27:47.961Z,22.53
2019-05-19T03:30:36.413Z,24.80
2019-05-19T03:33:11.593Z,23.67
2019-05-19T03:35:42.170Z,22.47
2019-05-19T03:38:12.735Z,20.80
2019-05-19T03:40:43.324Z,19.80
2019-05-19T03:43:13.998Z,19.53
2019-05-19T03:45:44.578Z,21.47
2019-05-19T03:48:15.184Z,19.90
2019-05-19T03:50:45.767Z,20.70
2019-05-19T03:53:16.375Z,22.23
2019-05-19T03:55:46.972Z,22.80
2019-05-19T03:58:17.542Z,19.20
2019-05-19T04:00:48.171Z,21.07
2019-05-19T04:03:18.747Z,23.47
2019-05-19T04:05:49.325Z,26.47
2019-05-19T04:08:19.904Z,25.23
2019-05-19T04:10:50.492Z,26.03
2019-05-19T04:13:21.087Z,26.37
2019-05-19T04:15:51.695Z,22.77
2019-05-19T04:18:22.307Z,22.47
2019-05-19T04:20:53.090Z,23.70
2019-05-19T04:23:23.696Z,22.30
2019-05-19T04:25:54.389Z,23.63
2019-05-19T04:28:24.958Z,21.77
2019-05-19T04:30:55.543Z,24.10
2019-05-19T04:33:26.155Z,23.13
2019-05-19T04:35:57.722Z,24.00
2019-05-19T04:38:28.490Z,25.57
2019-05-19T04:40:59.421Z,25.53
2019-05-19T04:43:30.245Z,20.63
2019-05-19T04:46:00.810Z,24.97
2019-05-19T04:48:31.587Z,22.67
2019-05-19T04:51:03.810Z,22.13
2019-05-19T04:53:35.076Z,24.73
2019-05-19T04:56:05.689Z,22.33
2019-05-19T04:58:36.277Z,24.47
2019-05-19T05:01:07.117Z,22.33
2019-05-19T05:03:37.767Z,26.67
2019-05-19T05:06:08.526Z,29.60
2019-05-19T05:08:39.471Z,30.50
2019-05-19T05:11:10.099Z,29.33
2019-05-19T05:13:41.433Z,28.60
2019-05-19T05:16:12.060Z,24.57
2019-05-19T05:18:43.417Z,27.23
2019-05-19T05:21:15.152Z,21.80
2019-05-19T05:23:45.858Z,22.83
2019-05-19T05:26:16.477Z,139.73
2019-05-19T05:28:47.072Z,46.17
2019-05-19T05:31:17.770Z,35.07
2019-05-19T05:33:49.531Z,32.97
2019-05-19T05:36:20.169Z,25.07
2019-05-19T05:38:51.012Z,26.73
2019-05-19T05:41:21.603Z,26.37
2019-05-19T05:43:52.192Z,23.47
2019-05-19T05:46:22.909Z,28.27
2019-05-19T05:48:54.621Z,23.40
2019-05-19T05:51:25.218Z,24.27
2019-05-19T05:53:55.810Z,22.80
2019-05-19T05:56:26.445Z,24.33
2019-05-19T05:58:57.195Z,24.40
2019-05-19T06:01:28.186Z,22.47
2019-05-19T06:03:59.718Z,25.87
2019-05-19T06:06:30.833Z,22.37
2019-05-19T06:09:05.299Z,24.20
2019-05-19T06:11:35.993Z,23.90
2019-05-19T06:14:07.014Z,24.10
2019-05-19T06:16:38.595Z,27.03
2019-05-19T06:19:09.314Z,26.97
2019-05-19T06:21:39.914Z,22.33
2019-05-19T06:24:10.548Z,25.33
2019-05-19T06:26:41.866Z,29.03
2019-05-19T06:29:12.634Z,28.23
2019-05-19T06:31:43.655Z,26.37
2019-05-19T06:34:14.675Z,28.43
2019-05-19T06:36:45.607Z,27.03
2019-05-19T06:39:17.018Z,27.70
2019-05-19T06:41:48.437Z,28.10
2019-05-19T06:44:19.167Z,29.23
2019-05-19T06:46:50.525Z,27.57
2019-05-19T06:49:21.793Z,26.47
2019-05-19T06:51:52.493Z,26.43
2019-05-19T06:54:23.123Z,26.33
2019-05-19T06:56:53.856Z,26.73
2019-05-19T06:59:24.421Z,28.17
2019-05-19T07:01:55.033Z,35.03
2019-05-19T07:04:26.244Z,26.10
2019-05-19T07:06:57.679Z,27.67
2019-05-19T07:09:30.259Z,34.77
2019-05-19T07:12:01.655Z,35.27
2019-05-19T07:14:32.425Z,22.53
2019-05-19T07:17:03.284Z,17.83
2019-05-19T07:19:34.351Z,17.43
2019-05-19T07:22:05.234Z,17.73
2019-05-19T07:24:36.515Z,15.70
2019-05-19T07:27:08.749Z,13.83
2019-05-19T07:29:39.885Z,11.27
2019-05-19T07:32:11.339Z,16.37
2019-05-19T07:34:42.298Z,13.10
2019-05-19T07:37:13.394Z,13.60
2019-05-19T07:39:44.364Z,18.90
2019-05-19T07:42:15.196Z,14.73
2019-05-19T07:44:47.237Z,13.27
2019-05-19T07:47:18.354Z,11.37
2019-05-19T07:49:49.250Z,58.13
2019-05-19T07:52:20.677Z,15.70
2019-05-19T07:54:51.278Z,11.43
2019-05-19T07:57:22.433Z,11.20
2019-05-19T07:59:53.364Z,53.13
2019-05-19T08:02:23.982Z,20.63
2019-05-19T08:04:55.000Z,18.13
2019-05-19T08:07:25.732Z,16.87
2019-05-19T08:09:56.284Z,9.57
2019-05-19T08:12:27.202Z,8.70
2019-05-19T08:14:57.959Z,7.63
2019-05-19T08:17:28.846Z,9.20
2019-05-19T08:19:59.416Z,10.93
2019-05-19T08:22:29.985Z,13.37
2019-05-19T08:25:01.650Z,10.80
2019-05-19T08:27:32.727Z,8.00
2019-05-19T08:30:05.332Z,11.53
2019-05-19T08:32:35.899Z,10.87
2019-05-19T08:35:07.302Z,8.07
2019-05-19T08:37:37.980Z,7.00
2019-05-19T08:40:09.028Z,8.07
2019-05-19T08:42:39.597Z,8.10
2019-05-19T08:45:11.203Z,5.67
2019-05-19T08:47:42.260Z,7.60
2019-05-19T08:50:14.431Z,11.00
2019-05-19T08:52:45.777Z,7.57
2019-05-19T08:55:17.392Z,6.60
2019-05-19T08:57:48.106Z,6.37
2019-05-19T09:00:19.857Z,7.25
2019-05-19T09:02:50.433Z,8.03
2019-05-19T09:05:21.324Z,7.08
2019-05-19T09:07:52.387Z,7.55
2019-05-19T09:10:23.223Z,6.40
2019-05-19T09:12:54.359Z,6.67
2019-05-19T09:15:25.146Z,6.72
2019-05-19T09:17:55.938Z,9.98
2019-05-19T09:20:26.602Z,7.30
2019-05-19T09:22:57.620Z,8.80
2019-05-19T09:25:28.384Z,9.65
2019-05-19T09:27:59.112Z,9.60
2019-05-19T09:30:29.832Z,9.08
2019-05-19T09:33:00.449Z,6.12
2019-05-19T09:35:31.276Z,8.95
2019-05-19T09:38:03.603Z,7.58
2019-05-19T09:40:34.681Z,7.87
2019-05-19T09:43:05.528Z,7.75
2019-05-19T09:45:36.059Z,10.20
2019-05-19T09:48:06.734Z,6.85
2019-05-19T09:50:37.514Z,9.78
2019-05-19T09:53:08.252Z,7.37
2019-05-19T09:55:39.039Z,8.20
2019-05-19T09:58:09.728Z,9.78
2019-05-19T10:00:40.307Z,8.88
2019-05-19T10:03:11.417Z,9.05
2019-05-19T10:05:42.218Z,9.38
2019-05-19T10:08:13.492Z,13.18
2019-05-19T10:10:56.959Z,12.73
2019-05-19T10:13:28.259Z,15.40
2019-05-19T10:15:59.173Z,14.50
2019-05-19T10:18:30.394Z,15.55
2019-05-19T10:21:01.226Z,13.83
2019-05-19T10:23:32.098Z,13.80
2019-05-19T10:26:02.802Z,17.40
2019-05-19T10:28:33.478Z,17.00
2019-05-19T10:31:04.426Z,18.45
2019-05-19T10:33:35.434Z,19.80
2019-05-19T10:36:07.523Z,19.10
2019-05-19T10:38:38.170Z,18.57
2019-05-19T10:41:08.953Z,23.20
2019-05-19T10:43:39.967Z,21.50
2019-05-19T10:46:10.765Z,21.30
2019-05-19T10:48:43.501Z,21.53
2019-05-19T10:51:15.811Z,24.20
2019-05-19T10:53:46.578Z,22.90
2019-05-19T10:56:19.138Z,29.23
2019-05-19T10:58:51.299Z,28.00
2019-05-19T11:01:22.120Z,27.70
2019-05-19T11:03:53.127Z,25.10
2019-05-19T11:06:24.080Z,28.93
2019-05-19T11:08:55.231Z,28.63
2019-05-19T11:11:26.642Z,27.87
2019-05-19T11:13:57.800Z,20.40
2019-05-19T11:16:28.882Z,18.47
2019-05-19T11:19:01.587Z,20.90
2019-05-19T11:21:32.334Z,19.53
2019-05-19T11:24:03.344Z,15.23
2019-05-19T11:26:34.751Z,15.93
2019-05-19T11:29:06.152Z,20.80
2019-05-19T11:31:37.025Z,17.27
2019-05-19T11:34:08.498Z,14.90
2019-05-19T11:36:39.387Z,14.50
2019-05-19T11:39:10.206Z,16.03
2019-05-19T11:41:41.369Z,15.47
2019-05-19T11:44:12.713Z,14.93
2019-05-19T11:46:43.498Z,13.03
2019-05-19T11:49:14.748Z,14.47
2019-05-19T11:51:45.717Z,14.23
2019-05-19T11:54:17.470Z,13.20
2019-05-19T11:56:48.091Z,10.63
2019-05-19T11:59:18.748Z,12.20
2019-05-19T12:01:49.319Z,11.93
2019-05-19T12:04:20.147Z,11.47
2019-05-19T12:06:50.913Z,13.20
2019-05-19T12:09:21.534Z,12.65
2019-05-19T12:11:52.085Z,13.25
2019-05-19T12:14:22.658Z,12.60
2019-05-19T12:16:53.445Z,15.45
2019-05-19T12:19:26.002Z,13.68
2019-05-19T12:21:56.607Z,19.67
2019-05-19T12:24:27.297Z,15.08
2019-05-19T12:26:58.105Z,14.13
2019-05-19T12:29:28.839Z,15.93
2019-05-19T12:32:00.176Z,15.90
2019-05-19T12:34:32.604Z,15.98
2019-05-19T12:37:03.843Z,14.70
2019-05-19T12:39:36.220Z,15.23
2019-05-19T12:42:07.419Z,15.07
2019-05-19T12:44:38.540Z,13.78
2019-05-19T12:47:10.059Z,12.82
2019-05-19T12:49:58.727Z,11.80
2019-05-19T12:52:29.843Z,14.73
2019-05-19T12:55:00.624Z,11.33
2019-05-19T12:57:32.612Z,10.93
2019-05-19T13:00:03.363Z,19.33
2019-05-19T13:02:34.435Z,11.23
2019-05-19T13:05:06.536Z,9.75
2019-05-19T13:07:37.293Z,7.90
2019-05-19T13:10:08.396Z,8.30
2019-05-19T13:12:39.057Z,11.37
2019-05-19T13:15:10.185Z,11.60
2019-05-19T13:17:40.780Z,8.40
2019-05-19T13:20:12.289Z,13.87
2019-05-19T13:22:42.947Z,9.67
2019-05-19T13:25:14.491Z,12.65
2019-05-19T13:27:45.069Z,11.15
2019-05-19T13:30:15.886Z,8.97
2019-05-19T13:32:46.486Z,10.00
2019-05-19T13:35:17.187Z,11.47
2019-05-19T13:37:49.646Z,10.97
2019-05-19T13:40:20.380Z,10.27
2019-05-19T13:42:50.966Z,10.20
2019-05-19T13:45:21.749Z,9.50
2019-05-19T13:47:52.357Z,8.03
2019-05-19T13:50:24.035Z,7.50
2019-05-19T13:52:54.684Z,8.50
2019-05-19T13:55:25.255Z,9.53
2019-05-19T13:57:55.951Z,11.07
2019-05-19T14:00:26.692Z,11.90
2019-05-19T14:02:58.767Z,8.80
2019-05-19T14:05:29.621Z,8.50
2019-05-19T14:08:00.737Z,8.90
2019-05-19T14:10:32.205Z,10.80
2019-05-19T14:13:04.371Z,11.07
2019-05-19T14:15:35.094Z,9.23
2019-05-19T14:18:05.798Z,7.65
2019-05-19T14:20:36.416Z,7.70
2019-05-19T14:23:07.157Z,8.03
2019-05-19T14:25:37.926Z,9.53
2019-05-19T14:28:08.704Z,9.53
2019-05-19T14:30:39.282Z,8.90
2019-05-19T14:33:10.084Z,9.40
2019-05-19T14:35:40.763Z,10.95
2019-05-19T14:38:11.337Z,10.43
2019-05-19T14:40:42.680Z,8.40
2019-05-19T14:43:14.325Z,8.55
2019-05-19T14:45:44.913Z,7.22
2019-05-19T14:48:15.542Z,8.53
2019-05-19T14:50:46.152Z,7.72
2019-05-19T14:53:16.712Z,10.08
2019-05-19T14:55:47.388Z,7.20
2019-05-19T14:58:17.947Z,6.33
2019-05-19T15:00:48.522Z,6.70
2019-05-19T15:03:19.869Z,7.03
2019-05-19T15:05:50.425Z,6.85
2019-05-19T15:08:21.005Z,6.95
2019-05-19T15:10:51.663Z,5.37
2019-05-19T15:13:22.262Z,5.85
2019-05-19T15:15:52.798Z,6.42
2019-05-19T15:18:23.373Z,5.70
2019-05-19T15:20:53.965Z,9.35
2019-05-19T15:23:24.580Z,8.38
2019-05-19T15:25:55.261Z,14.83
2019-05-19T15:28:25.950Z,20.17
2019-05-19T15:30:56.636Z,34.65
2019-05-19T15:33:28.357Z,7.83
2019-05-19T15:35:58.923Z,12.80
2019-05-19T15:38:29.548Z,8.80
2019-05-19T15:41:00.080Z,11.08
2019-05-19T15:43:30.740Z,6.50
2019-05-19T15:46:01.344Z,7.08
2019-05-19T15:48:32.009Z,14.78
2019-05-19T15:51:04.063Z,4.65
2019-05-19T15:53:34.641Z,7.00
2019-05-19T15:56:05.223Z,4.30
2019-05-19T15:58:36.038Z,9.30
2019-05-19T16:01:06.616Z,6.73
2019-05-19T16:03:37.182Z,6.00
2019-05-19T16:06:07.853Z,9.47
2019-05-19T16:08:38.437Z,6.20
2019-05-19T16:11:09.021Z,6.67
2019-05-19T16:13:40.062Z,8.27
2019-05-19T16:16:10.622Z,11.20
2019-05-19T16:18:41.503Z,5.47
2019-05-19T16:21:13.655Z,9.13
2019-05-19T16:23:44.402Z,6.87
2019-05-19T16:26:14.961Z,6.57
2019-05-19T16:28:45.516Z,6.50
2019-05-19T16:31:16.141Z,6.63
2019-05-19T16:33:46.702Z,11.03
2019-05-19T16:36:17.661Z,7.03
2019-05-19T16:38:49.065Z,7.20
2019-05-19T16:41:19.639Z,8.80
2019-05-19T16:43:50.196Z,8.03
2019-05-19T16:46:20.798Z,13.07
2019-05-19T16:48:51.441Z,7.13
2019-05-19T16:51:22.054Z,11.87
2019-05-19T16:53:54.437Z,12.23
2019-05-19T16:56:25.987Z,15.10
2019-05-19T16:58:56.592Z,21.80
2019-05-19T17:01:27.388Z,57.80
2019-05-19T17:04:00.268Z,34.67
2019-05-19T17:06:32.443Z,57.93
2019-05-19T17:09:05.707Z,56.53
2019-05-19T17:11:37.051Z,33.23
2019-05-19T17:14:08.280Z,52.97
2019-05-19T17:16:39.426Z,49.27
2019-05-19T17:19:09.997Z,25.17
2019-05-19T17:21:41.364Z,14.33
2019-05-19T17:24:12.782Z,20.57
2019-05-19T17:26:43.844Z,18.80
2019-05-19T17:29:14.966Z,9.07
2019-05-19T17:31:46.506Z,16.80
2019-05-19T17:34:20.517Z,27.73
2019-05-19T17:36:52.048Z,23.30
2019-05-19T17:39:24.147Z,9.67
2019-05-19T17:41:54.871Z,18.67
2019-05-19T17:44:26.345Z,24.60
2019-05-19T17:46:57.668Z,17.47
2019-05-19T17:49:28.489Z,18.30
2019-05-19T17:52:00.092Z,12.87
2019-05-19T17:54:32.270Z,17.87
2019-05-19T17:57:04.114Z,21.60
2019-05-19T17:59:36.044Z,19.60
2019-05-19T18:02:07.169Z,17.13
2019-05-19T18:04:37.893Z,25.83
2019-05-19T18:07:08.832Z,68.13
2019-05-19T18:09:39.781Z,115.53
2019-05-19T18:12:12.224Z,27.23
2019-05-19T18:14:43.195Z,19.40
2019-05-19T18:17:13.952Z,21.33
2019-05-19T18:19:44.557Z,11.60
2019-05-19T18:22:15.572Z,10.13
2019-05-19T18:24:46.489Z,12.87
2019-05-19T18:27:17.385Z,10.87
2019-05-19T18:29:49.288Z,8.97
2019-05-19T18:32:20.596Z,9.13
2019-05-19T18:34:51.789Z,7.20
2019-05-19T18:37:25.770Z,6.03
2019-05-19T18:39:59.155Z,6.17
2019-05-19T18:42:31.559Z,5.20
2019-05-19T18:45:02.914Z,5.87
2019-05-19T18:47:33.643Z,7.57
2019-05-19T18:50:08.604Z,5.17
2019-05-19T18:52:39.388Z,6.77
2019-05-19T18:55:11.957Z,8.63
2019-05-19T18:57:43.230Z,7.43
2019-05-19T19:00:16.983Z,6.60
2019-05-19T19:02:49.644Z,7.17
2019-05-19T19:05:20.872Z,8.20
2019-05-19T19:07:55.719Z,7.00
2019-05-19T19:10:28.401Z,7.93
2019-05-19T19:12:59.343Z,7.67
2019-05-19T19:15:30.274Z,5.33
2019-05-19T19:18:01.542Z,6.40
2019-05-19T19:20:32.418Z,7.07
2019-05-19T19:23:05.227Z,8.27
2019-05-19T19:25:39.553Z,7.07
2019-05-19T19:28:10.899Z,5.63
2019-05-19T19:30:43.680Z,6.57
2019-05-19T19:33:14.780Z,4.93
2019-05-19T19:35:47.556Z,5.30
2019-05-19T19:38:18.346Z,8.80
2019-05-19T19:40:50.407Z,7.03
2019-05-19T19:43:20.836Z,6.57
2019-05-19T19:45:54.006Z,6.20
2019-05-19T19:48:24.883Z,6.77
2019-05-19T19:50:55.766Z,7.17
2019-05-19T19:53:26.605Z,5.63
2019-05-19T19:55:57.384Z,7.33
2019-05-19T19:58:27.801Z,9.40
2019-05-19T20:01:01.903Z,4.73
2019-05-19T20:03:32.561Z,5.60
2019-05-19T20:06:06.682Z,7.40
2019-05-19T20:08:37.858Z,3.73
2019-05-19T20:11:08.901Z,5.93
2019-05-19T20:13:42.702Z,5.07
2019-05-19T20:16:14.503Z,5.13
2019-05-19T20:18:45.648Z,3.23
2019-05-19T20:21:16.558Z,7.53
2019-05-19T20:23:48.028Z,5.80
2019-05-19T20:26:19.848Z,4.13
2019-05-19T20:28:50.676Z,6.37
2019-05-19T20:31:22.307Z,3.60
2019-05-19T20:33:52.839Z,14.10
2019-05-19T20:36:24.316Z,3.63
2019-05-19T20:38:55.460Z,4.83
2019-05-19T20:41:26.125Z,3.87
2019-05-19T20:43:57.631Z,5.40
2019-05-19T20:46:28.484Z,6.50
2019-05-19T20:49:00.701Z,3.60
2019-05-19T20:51:33.806Z,4.03
2019-05-19T20:54:05.307Z,3.53
2019-05-19T20:56:36.520Z,3.27
2019-05-19T20:59:07.247Z,2.97
2019-05-19T21:01:37.936Z,3.40
2019-05-19T21:04:08.503Z,4.67
2019-05-19T21:06:39.873Z,4.13
2019-05-19T21:09:11.355Z,3.23
2019-05-19T21:11:42.201Z,3.73
2019-05-19T21:14:12.902Z,3.40
2019-05-19T21:16:43.638Z,3.53
2019-05-19T21:19:14.633Z,3.90
2019-05-19T21:21:45.207Z,4.23
2019-05-19T21:24:15.913Z,4.13
2019-05-19T21:26:46.633Z,3.47
2019-05-19T21:29:17.204Z,5.73
2019-05-19T21:31:47.871Z,4.50
2019-05-19T21:34:18.449Z,3.90
2019-05-19T21:36:49.970Z,3.73
2019-05-19T21:39:21.674Z,5.77
2019-05-19T21:41:52.257Z,4.17
2019-05-19T21:44:22.816Z,4.33
2019-05-19T21:46:53.388Z,4.70
2019-05-19T21:49:23.964Z,3.00
2019-05-19T21:51:54.678Z,3.63
2019-05-19T21:54:25.383Z,5.40
2019-05-19T21:56:56.041Z,8.07
2019-05-19T21:59:27.875Z,4.27
2019-05-19T22:01:59.083Z,9.13
2019-05-19T22:04:29.743Z,7.50
2019-05-19T22:07:01.945Z,4.67
2019-05-19T22:09:32.530Z,3.57
2019-05-19T22:12:04.616Z,4.97
2019-05-19T22:14:35.315Z,8.07
2019-05-19T22:17:06.083Z,6.10
2019-05-19T22:19:36.666Z,3.30
2019-05-19T22:22:07.322Z,4.50
2019-05-19T22:24:38.274Z,4.57
2019-05-19T22:27:08.996Z,6.23
2019-05-19T22:29:39.681Z,3.80
2019-05-19T22:32:10.230Z,3.33
2019-05-19T22:34:40.812Z,4.87
2019-05-19T22:37:11.382Z,10.47
2019-05-19T22:39:41.949Z,4.57
2019-05-19T22:42:12.611Z,4.40
2019-05-19T22:44:43.261Z,5.13
2019-05-19T22:47:14.105Z,5.37
2019-05-19T22:49:44.886Z,8.13
2019-05-19T22:52:16.612Z,3.73
2019-05-19T22:54:47.173Z,3.90
2019-05-19T22:57:18.201Z,3.67
2019-05-19T22:59:48.880Z,5.93
2019-05-19T23:02:19.624Z,3.60
2019-05-19T23:04:50.705Z,4.27
2019-05-19T23:07:22.323Z,4.03
2019-05-19T23:09:53.068Z,4.13
2019-05-19T23:12:23.902Z,4.30
2019-05-19T23:14:54.576Z,4.70
2019-05-19T23:17:25.243Z,6.27
2019-05-19T23:19:58.000Z,6.83
2019-05-19T23:22:28.787Z,6.23
2019-05-19T23:24:59.585Z,5.50
2019-05-19T23:27:30.343Z,5.33
2019-05-19T23:30:01.026Z,5.50
2019-05-19T23:32:31.759Z,5.53
2019-05-19T23:35:05.335Z,6.13
2019-05-19T23:37:35.903Z,4.50
2019-05-19T23:40:08.979Z,5.50
2019-05-19T23:42:40.431Z,5.67
2019-05-19T23:45:11.377Z,5.70
2019-05-19T23:47:42.036Z,5.23
2019-05-19T23:50:13.638Z,6.60
2019-05-19T23:52:44.593Z,7.87
2019-05-19T23:55:15.233Z,8.23
2019-05-19T23:57:45.781Z,6.43
